Buffalo Niagara International Airport Buffalo US
ICAO: KBUF
IATA: BUF
Category: Large
Scheduled Services: Yes

Elevation: 728 ft
TransAlt. 18000 ft.

Airport Communications:
APP/DEP:126.15
ATIS:135.35
CLNC DEL:124.7
GND:121.9
RDO:122.6
TWR:120.5

KBUF Zoom In..

If you have problems with the map follow the link
https://www.worldairports.se/pages/airport.php?
ICAO=KBUF

Runways:

(A) RW 05 length 8829 ft width 150 ft
ILS 108.50 / hdg 55

(B) RW 14 length 7161 ft width 150 ft
---- / hdg 138

(C) RW 23 length 8829 ft width 150 ft
ILS 111.30 / hdg 235

(D) RW 32 length 7161 ft width 150 ft
ILS 109.95 / hdg 318

Location; KBUF
Day. 19 / Time. 21.54 Zulu
* Altimeter: 29.72
* Temperature: 26° c. 78.8°f.
* Wind from: 250° Speed 13 kn with Gusts up to 22 kn.
Dewpoint: 15° c.
Visibility: 10 Statute Miles.
Clouds: Scattered 6000 ft.
Clouds: Broken 25000 ft.

KBUF 192154Z 25013G22KT 10SM SCT060 BKN250 26/15 A2972 RMK AO2 SLP059 T02610150 $


Wind From 250°
Speed 13 kn.

 
 
jpsmedia.com for Web Design worldairports.se 2019   terms of use